Maersk Drummond — A8JF3 — position and weather

sailwx.info

Track history (hours):
 
Tides and Currents Weather Stations Pressure Air Temp Water Temp Dewpoint Dewpoint Depression Visibility Wind Speed Wind Dir Waves Ship Positions

Maersk Drummond

Last reported at 2017-Jan-17 10:34 UTC. Time now 2017-Jan-22 01:48 UTC.
Position N 39°27' W 125°09'.

Length 294 m; draft 9.1 m.

Type: Ship (hazmat cat A). MMSI: 636091082.

Date/timePositionNaut miles runAvg speedWind from/ knotsBaromVisibWave heightAir tempDewpointWater temp
2017-Jan-17 10:34N 39°27' W 125°09'2116.9
2017-Jan-17 09:17N 39°11' W 124°49'1716.9
2017-Jan-17 08:18N 39°01' W 124°33'2017.1
2017-Jan-17 07:08N 38°47' W 124°13'2717.2
2017-Jan-17 05:33N 38°29' W 123°48'1716.8
2017-Jan-17 04:34N 38°18' W 123°32'1616.5
2017-Jan-17 03:33N 38°06' W 123°17'1616.0
2017-Jan-17 02:33N 37°56' W 123°02'1616.1
2017-Jan-17 01:33N 37°47' W 122°44'1414.0
2017-Jan-17 00:33N 37°49' W 122°27'6 5.9
2017-Jan-16 23:34N 37°48' W 122°19'0 0.0
2017-Jan-16 22:34N 37°48' W 122°19'0 0.0
2017-Jan-16 21:34N 37°48' W 122°19'0 0.0
2017-Jan-16 20:34N 37°48' W 122°19'0 0.0
2017-Jan-16 19:34N 37°48' W 122°19'0 0.0
2017-Jan-16 18:34N 37°48' W 122°19'0 0.0
2017-Jan-16 17:34N 37°48' W 122°19'0 0.0
2017-Jan-16 16:33N 37°48' W 122°19'0 0.0
2017-Jan-16 15:34N 37°48' W 122°19'2 1.5
2017-Jan-16 14:33N 37°48' W 122°18'7 6.9
2017-Jan-16 13:33N 37°49' W 122°26'8 8.1
2017-Jan-16 12:33N 37°46' W 122°36'7 6.9
2017-Jan-16 11:33N 37°40' W 122°40'1514.5
2017-Jan-16 10:31N 37°25' W 122°40'1515.9
2017-Jan-16 09:33N 37°10' W 122°39'1615.7
2017-Jan-16 08:31N 36°55' W 122°32'1515.7
2017-Jan-16 07:33N 36°41' W 122°24'1616.2
2017-Jan-16 06:33N 36°26' W 122°17'1616.1
2017-Jan-16 05:33N 36°12' W 122°08'1615.7
2017-Jan-16 04:33N 35°58' W 121°58'1615.6
2017-Jan-16 03:33N 35°45' W 121°48'20614.6
2017-Jan-15 13:28N 33°41' W 118°27'1010.9
2017-Jan-15 12:33N 33°39' W 118°16'6 5.8
2017-Jan-15 11:33N 33°45' W 118°16'1 0.6
2017-Jan-15 09:30N 33°46' W 118°15'0 0.0
2017-Jan-15 08:33N 33°46' W 118°15'0 0.0
2017-Jan-15 06:27N 33°46' W 118°15'0 0.0
2017-Jan-15 05:33N 33°46' W 118°15'0 0.0
2017-Jan-15 03:30N 33°46' W 118°15'0 0.0
2017-Jan-15 02:06N 33°46' W 118°15'0 0.0
2017-Jan-15 01:09N 33°46' W 118°15'0 0.0
2017-Jan-15 00:33N 33°46' W 118°15'0 0.0
2017-Jan-14 23:33N 33°46' W 118°15'0 0.0
2017-Jan-14 22:30N 33°46' W 118°15'0 0.0
2017-Jan-14 21:30N 33°46' W 118°15'0 0.0
2017-Jan-14 20:33N 33°46' W 118°15'0 0.0
2017-Jan-14 19:30N 33°46' W 118°15'0 0.0
2017-Jan-14 18:30N 33°46' W 118°15'0 0.0
2017-Jan-14 16:18N 33°46' W 118°15'  
Track history (hours):
 
Tides and Currents Weather Stations Pressure Air Temp Water Temp Dewpoint Dewpoint Depression Visibility Wind Speed Wind Dir Waves Ship Positions

Maersk Drummond

Last reported at 2017-Jan-17 10:34 UTC. Time now 2017-Jan-22 01:48 UTC.
Position N 39°27' W 125°09'.

Length 294 m; draft 9.1 m.

Type: Ship (hazmat cat A). MMSI: 636091082.

Date/timePositionNaut miles runAvg speedWind from/ knotsBaromVisibWave heightAir tempDewpointWater temp
2017-Jan-17 10:34N 39°27' W 125°09'2116.9
2017-Jan-17 09:17N 39°11' W 124°49'1716.9
2017-Jan-17 08:18N 39°01' W 124°33'2017.1
2017-Jan-17 07:08N 38°47' W 124°13'2717.2
2017-Jan-17 05:33N 38°29' W 123°48'1716.8
2017-Jan-17 04:34N 38°18' W 123°32'1616.5
2017-Jan-17 03:33N 38°06' W 123°17'1616.0
2017-Jan-17 02:33N 37°56' W 123°02'1616.1
2017-Jan-17 01:33N 37°47' W 122°44'1414.0
2017-Jan-17 00:33N 37°49' W 122°27'6 5.9
2017-Jan-16 23:34N 37°48' W 122°19'0 0.0
2017-Jan-16 22:34N 37°48' W 122°19'0 0.0
2017-Jan-16 21:34N 37°48' W 122°19'0 0.0
2017-Jan-16 20:34N 37°48' W 122°19'0 0.0
2017-Jan-16 19:34N 37°48' W 122°19'0 0.0
2017-Jan-16 18:34N 37°48' W 122°19'0 0.0
2017-Jan-16 17:34N 37°48' W 122°19'0 0.0
2017-Jan-16 16:33N 37°48' W 122°19'0 0.0
2017-Jan-16 15:34N 37°48' W 122°19'2 1.5
2017-Jan-16 14:33N 37°48' W 122°18'7 6.9
2017-Jan-16 13:33N 37°49' W 122°26'8 8.1
2017-Jan-16 12:33N 37°46' W 122°36'7 6.9
2017-Jan-16 11:33N 37°40' W 122°40'1514.5
2017-Jan-16 10:31N 37°25' W 122°40'1515.9
2017-Jan-16 09:33N 37°10' W 122°39'1615.7
2017-Jan-16 08:31N 36°55' W 122°32'1515.7
2017-Jan-16 07:33N 36°41' W 122°24'1616.2
2017-Jan-16 06:33N 36°26' W 122°17'1616.1
2017-Jan-16 05:33N 36°12' W 122°08'1615.7
2017-Jan-16 04:33N 35°58' W 121°58'1615.6
2017-Jan-16 03:33N 35°45' W 121°48'20614.6
2017-Jan-15 13:28N 33°41' W 118°27'1010.9
2017-Jan-15 12:33N 33°39' W 118°16'6 5.8
2017-Jan-15 11:33N 33°45' W 118°16'1 0.6
2017-Jan-15 09:30N 33°46' W 118°15'0 0.0
2017-Jan-15 08:33N 33°46' W 118°15'0 0.0
2017-Jan-15 06:27N 33°46' W 118°15'0 0.0
2017-Jan-15 05:33N 33°46' W 118°15'0 0.0
2017-Jan-15 03:30N 33°46' W 118°15'0 0.0
2017-Jan-15 02:06N 33°46' W 118°15'0 0.0
2017-Jan-15 01:09N 33°46' W 118°15'0 0.0
2017-Jan-15 00:33N 33°46' W 118°15'0 0.0
2017-Jan-14 23:33N 33°46' W 118°15'0 0.0
2017-Jan-14 22:30N 33°46' W 118°15'0 0.0
2017-Jan-14 21:30N 33°46' W 118°15'0 0.0
2017-Jan-14 20:33N 33°46' W 118°15'0 0.0
2017-Jan-14 19:30N 33°46' W 118°15'0 0.0
2017-Jan-14 18:30N 33°46' W 118°15'0 0.0
2017-Jan-14 16:18N 33°46' W 118°15'  

Dump ship's entire track history